createdAt,value
2024-05-09T00:00:35.564Z,95133.41
2024-05-09T00:03:07.522Z,95124.97
2024-05-09T00:05:34.598Z,95118.53
2024-05-09T00:08:01.577Z,95128.38
2024-05-09T00:10:35.427Z,95121.38
2024-05-09T00:13:04.819Z,95126.75
2024-05-09T00:15:31.715Z,95130.59
2024-05-09T00:17:58.483Z,95125.94
2024-05-09T00:20:33.566Z,95118.53
2024-05-09T00:23:07.050Z,95139.16
2024-05-09T00:25:34.176Z,95132.59
2024-05-09T00:28:00.893Z,95130.28
2024-05-09T00:30:33.737Z,95121.38
2024-05-09T00:33:03.540Z,95121.16
2024-05-09T00:35:30.888Z,95117.88
2024-05-09T00:37:57.617Z,95114.38
2024-05-09T00:40:35.018Z,95125.38
2024-05-09T00:43:06.083Z,95123.50
2024-05-09T00:45:33.657Z,95098.69
2024-05-09T00:48:01.653Z,95122.66
2024-05-09T00:50:35.646Z,95101.41
2024-05-09T00:53:04.571Z,95100.44
2024-05-09T00:55:31.159Z,95114.94
2024-05-09T00:57:57.736Z,95110.75
2024-05-09T01:00:31.562Z,95119.66
2024-05-09T01:03:05.634Z,95104.56
2024-05-09T01:05:32.717Z,95091.22
2024-05-09T01:07:59.427Z,95100.47
2024-05-09T01:10:33.542Z,95105.00
2024-05-09T01:13:02.781Z,95103.59
2024-05-09T01:15:29.412Z,95094.28
2024-05-09T01:17:56.849Z,95100.56
2024-05-09T01:20:32.232Z,95104.66
2024-05-09T01:23:07.189Z,95097.19
2024-05-09T01:25:33.972Z,95087.34
2024-05-09T01:28:00.677Z,95100.09
2024-05-09T01:30:33.959Z,95107.22
2024-05-09T01:33:02.962Z,95090.84
2024-05-09T01:35:29.825Z,95099.72
2024-05-09T01:37:56.552Z,95098.09
2024-05-09T01:40:33.266Z,95095.28
2024-05-09T01:43:04.614Z,95103.84
2024-05-09T01:45:31.226Z,95116.56
2024-05-09T01:47:58.233Z,95112.47
2024-05-09T01:50:37.197Z,95110.97
2024-05-09T01:53:07.837Z,95110.38
2024-05-09T01:55:34.657Z,95112.25
2024-05-09T01:58:01.366Z,95102.19
2024-05-09T02:00:37.829Z,95112.72
2024-05-09T02:03:13.332Z,95117.94
2024-05-09T02:05:43.085Z,95107.31
2024-05-09T02:08:15.870Z,95101.44
2024-05-09T02:10:45.556Z,95091.88
2024-05-09T02:13:12.984Z,95102.25
2024-05-09T02:15:39.797Z,95102.72
2024-05-09T02:18:07.642Z,95080.00
2024-05-09T02:20:36.770Z,95092.91
2024-05-09T02:23:06.140Z,95103.28
2024-05-09T02:25:33.310Z,95094.84
2024-05-09T02:27:59.962Z,95096.50
2024-05-09T02:30:36.518Z,95062.91
2024-05-09T02:33:07.785Z,95078.91
2024-05-09T02:35:34.907Z,95080.31
2024-05-09T02:38:01.683Z,95072.22
2024-05-09T02:40:36.018Z,95092.69
2024-05-09T02:43:05.481Z,95079.09
2024-05-09T02:45:32.297Z,95067.88
2024-05-09T02:47:59.220Z,95083.44
2024-05-09T02:50:34.329Z,95082.19
2024-05-09T02:53:05.423Z,95091.88
2024-05-09T02:55:32.374Z,95064.00
2024-05-09T02:57:59.175Z,95078.75
2024-05-09T03:00:34.650Z,95072.66
2024-05-09T03:03:08.071Z,95092.41
2024-05-09T03:05:35.719Z,95080.84
2024-05-09T03:08:02.450Z,95086.09
2024-05-09T03:10:34.933Z,95073.22
2024-05-09T03:13:15.043Z,95072.16
2024-05-09T03:15:43.092Z,95062.31
2024-05-09T03:18:10.190Z,95080.09
2024-05-09T03:20:37.832Z,95071.84
2024-05-09T03:23:06.404Z,95065.75
2024-05-09T03:25:33.363Z,95067.16
2024-05-09T03:28:00.152Z,95078.97
2024-05-09T03:30:38.447Z,95077.69
2024-05-09T03:33:17.173Z,95079.09
2024-05-09T03:35:44.849Z,95070.94
2024-05-09T03:38:11.620Z,95073.63
2024-05-09T03:40:45.043Z,95077.94
2024-05-09T03:43:12.505Z,95080.63
2024-05-09T03:45:39.089Z,95073.63
2024-05-09T03:48:06.111Z,95081.66
2024-05-09T03:50:35.685Z,95059.44
2024-05-09T03:53:03.516Z,95069.88
2024-05-09T03:55:30.886Z,95080.75
2024-05-09T03:57:57.514Z,95084.03
2024-05-09T04:00:31.335Z,95080.75
2024-05-09T04:03:05.535Z,95073.72
2024-05-09T04:05:33.268Z,95088.72
2024-05-09T04:08:00.133Z,95081.56
2024-05-09T04:10:33.569Z,95080.38
2024-05-09T04:13:01.767Z,95068.81
2024-05-09T04:15:28.566Z,95081.25
2024-05-09T04:17:55.248Z,95092.94
2024-05-09T04:20:32.994Z,95088.59
2024-05-09T04:23:05.738Z,95090.84
2024-05-09T04:25:32.663Z,95095.31
2024-05-09T04:27:59.269Z,95089.47
2024-05-09T04:30:34.779Z,95091.50
2024-05-09T04:33:06.168Z,95098.53
2024-05-09T04:35:33.390Z,95092.91
2024-05-09T04:38:00.531Z,95102.16
2024-05-09T04:40:33.173Z,95101.09
2024-05-09T04:43:03.213Z,95105.66
2024-05-09T04:45:29.988Z,95102.97
2024-05-09T04:47:56.933Z,95103.78
2024-05-09T04:50:32.699Z,95111.38
2024-05-09T04:53:03.528Z,95114.88
2024-05-09T04:55:30.447Z,95112.34
2024-05-09T04:57:57.059Z,95096.06
2024-05-09T05:00:32.406Z,95096.56
2024-05-09T05:03:13.746Z,95105.94
2024-05-09T05:05:42.899Z,95117.03
2024-05-09T05:08:16.893Z,95113.66
2024-05-09T05:10:44.632Z,95110.72
2024-05-09T05:13:20.461Z,95122.19
2024-05-09T05:15:51.222Z,95121.50
2024-05-09T05:18:18.272Z,95103.50
2024-05-09T05:20:45.491Z,95107.94
2024-05-09T05:23:16.489Z,95108.16
2024-05-09T05:25:43.503Z,95096.00
2024-05-09T05:28:10.584Z,95117.88
2024-05-09T05:30:37.775Z,95109.81
2024-05-09T05:33:05.369Z,95113.22
2024-05-09T05:35:32.068Z,95116.47
2024-05-09T05:37:58.806Z,95101.97
2024-05-09T05:40:33.153Z,95115.84
2024-05-09T05:43:04.829Z,95117.97
2024-05-09T05:45:31.460Z,95114.69
2024-05-09T05:47:58.247Z,95123.72
2024-05-09T05:50:32.528Z,95130.50
2024-05-09T05:53:03.223Z,95117.88
2024-05-09T05:55:30.012Z,95136.69
2024-05-09T05:57:56.631Z,95119.59
2024-05-09T06:00:29.906Z,95139.38
2024-05-09T06:03:04.976Z,95136.31
2024-05-09T06:05:32.180Z,95136.78
2024-05-09T06:07:59.098Z,95133.34
2024-05-09T06:10:36.931Z,95124.78
2024-05-09T06:13:06.356Z,95137.72
2024-05-09T06:15:32.948Z,95127.03
2024-05-09T06:17:59.720Z,95123.41
2024-05-09T06:20:34.515Z,95119.47
2024-05-09T06:23:04.224Z,95133.91
2024-05-09T06:25:31.066Z,95125.84
2024-05-09T06:27:57.629Z,95123.41
2024-05-09T06:30:30.808Z,95131.53
2024-05-09T06:33:05.932Z,95129.81
2024-05-09T06:35:33.381Z,95121.22
2024-05-09T06:38:00.366Z,95124.88
2024-05-09T06:40:36.117Z,95131.31
2024-05-09T06:43:05.518Z,95127.63
2024-05-09T06:45:32.149Z,95124.03
2024-05-09T06:47:58.967Z,95126.59
2024-05-09T06:50:28.581Z,95119.38
2024-05-09T06:53:02.313Z,95123.09
2024-05-09T06:55:29.165Z,95127.34
2024-05-09T06:57:55.810Z,95128.78
2024-05-09T07:00:30.270Z,95122.84
2024-05-09T07:03:11.629Z,95108.53
2024-05-09T07:05:39.529Z,95114.00
2024-05-09T07:08:06.517Z,95108.59
2024-05-09T07:10:35.573Z,95123.22
2024-05-09T07:13:03.015Z,95113.66
2024-05-09T07:15:29.625Z,95104.50
2024-05-09T07:17:56.557Z,95104.50
2024-05-09T07:20:32.075Z,95103.69
2024-05-09T07:23:02.618Z,95116.09
2024-05-09T07:25:29.540Z,95116.41
2024-05-09T07:27:56.242Z,95113.84
2024-05-09T07:30:27.809Z,95105.22
2024-05-09T07:33:00.503Z,95119.94
2024-05-09T07:35:27.723Z,95112.34
2024-05-09T07:37:54.609Z,95114.00
2024-05-09T07:40:31.833Z,95108.59
2024-05-09T07:43:05.350Z,95118.38
2024-05-09T07:45:48.175Z,95118.06
2024-05-09T07:52:38.349Z,95109.91
2024-05-09T07:53:47.565Z,95112.34
2024-05-09T07:56:18.587Z,95108.78
2024-05-09T07:58:46.163Z,95107.47
2024-05-09T08:01:12.986Z,95110.97
2024-05-09T08:03:39.906Z,95096.88
2024-05-09T08:06:06.590Z,95109.38
2024-05-09T08:08:33.213Z,95089.28
2024-05-09T08:10:59.800Z,95106.38
2024-05-09T08:13:26.453Z,95104.22
2024-05-09T08:15:53.180Z,95106.13
2024-05-09T08:18:19.949Z,95095.81
2024-05-09T08:20:47.971Z,95094.72
2024-05-09T08:23:14.587Z,95096.09
2024-05-09T08:25:41.211Z,95102.31
2024-05-09T08:28:08.033Z,95100.38
2024-05-09T08:30:37.329Z,95099.84
2024-05-09T08:33:06.095Z,95087.06
2024-05-09T08:35:33.350Z,95095.47
2024-05-09T08:38:06.173Z,95091.34
2024-05-09T08:40:36.087Z,95094.03
2024-05-09T08:43:07.408Z,95087.22
2024-05-09T08:45:35.132Z,95084.44
2024-05-09T08:48:05.592Z,95091.00
2024-05-09T08:50:38.471Z,95080.13
2024-05-09T08:53:06.707Z,95089.41
2024-05-09T08:55:33.379Z,95079.03
2024-05-09T08:58:00.446Z,95087.50
2024-05-09T09:00:35.601Z,95079.00
2024-05-09T09:03:04.523Z,95076.78
2024-05-09T09:05:31.762Z,95073.91
2024-05-09T09:07:58.651Z,95081.69
2024-05-09T09:10:31.478Z,95063.78
2024-05-09T09:13:01.279Z,95078.09
2024-05-09T09:15:28.038Z,95080.50
2024-05-09T09:18:00.747Z,95070.97
2024-05-09T09:20:35.364Z,95082.69
2024-05-09T09:23:03.652Z,95074.75
2024-05-09T09:25:30.420Z,95067.63
2024-05-09T09:27:58.076Z,95059.75
2024-05-09T09:30:34.678Z,95062.22
2024-05-09T09:33:04.599Z,95074.16
2024-05-09T09:35:31.408Z,95073.59
2024-05-09T09:37:59.750Z,95067.63
2024-05-09T09:40:32.235Z,95074.94
2024-05-09T09:43:00.939Z,95066.72
2024-05-09T09:45:30.764Z,95073.84
2024-05-09T09:47:57.565Z,95071.31
2024-05-09T09:50:31.734Z,95071.03
2024-05-09T09:53:01.435Z,95068.47
2024-05-09T09:55:28.324Z,95063.56
2024-05-09T09:57:55.904Z,95063.03
2024-05-09T10:00:27.175Z,95063.34
2024-05-09T10:02:58.937Z,95054.44
2024-05-09T10:05:26.067Z,95055.78
2024-05-09T10:07:52.982Z,95061.72
2024-05-09T10:10:30.380Z,95067.66
2024-05-09T10:13:06.227Z,95067.22
2024-05-09T10:15:51.986Z,95061.66
2024-05-09T10:18:28.470Z,95062.06
2024-05-09T10:20:57.032Z,95051.03
2024-05-09T10:23:27.001Z,95067.34
2024-05-09T10:26:00.661Z,95058.03
2024-05-09T10:28:28.138Z,95062.16
2024-05-09T10:31:07.743Z,95063.28
2024-05-09T10:33:50.678Z,95064.91
2024-05-09T10:36:22.570Z,95064.53
2024-05-09T10:38:49.810Z,95062.13
2024-05-09T10:41:16.820Z,95043.94
2024-05-09T10:43:43.531Z,95053.53
2024-05-09T10:46:10.638Z,95054.25
2024-05-09T10:48:37.912Z,95043.41
2024-05-09T10:51:04.914Z,95056.25
2024-05-09T10:53:31.810Z,95044.53
2024-05-09T10:55:58.961Z,95050.19
2024-05-09T10:58:26.133Z,95048.22
2024-05-09T11:00:57.582Z,95054.97
2024-05-09T11:03:24.738Z,95052.28
2024-05-09T11:05:55.268Z,95043.53
2024-05-09T11:08:22.433Z,95046.22
2024-05-09T11:10:49.837Z,95044.06
2024-05-09T11:13:29.789Z,95044.78
2024-05-09T11:15:56.404Z,95046.66
2024-05-09T11:18:25.540Z,95044.44
2024-05-09T11:20:53.608Z,95034.22
2024-05-09T11:23:21.853Z,95043.34
2024-05-09T11:25:49.823Z,95046.59
2024-05-09T11:28:17.998Z,95039.03
2024-05-09T11:30:44.692Z,95049.31
2024-05-09T11:33:11.900Z,95049.03
2024-05-09T11:35:38.545Z,95047.03
2024-05-09T11:38:05.181Z,95049.66
2024-05-09T11:40:34.395Z,95053.66
2024-05-09T11:43:01.383Z,95045.44
2024-05-09T11:45:28.203Z,95048.72
2024-05-09T11:47:54.951Z,95039.19
2024-05-09T11:50:27.307Z,95039.72
2024-05-09T11:52:59.076Z,95038.88
2024-05-09T11:55:28.120Z,95035.72
2024-05-09T11:57:55.361Z,95043.44
2024-05-09T12:00:29.606Z,95023.88
2024-05-09T12:03:04.546Z,95025.41
2024-05-09T12:05:31.571Z,95029.41
2024-05-09T12:07:58.238Z,95035.88
2024-05-09T12:10:32.569Z,95025.78
2024-05-09T12:13:01.920Z,95014.31
2024-05-09T12:15:28.958Z,95031.34
2024-05-09T12:17:58.332Z,95017.47
2024-05-09T12:20:35.146Z,95022.56
2024-05-09T12:23:05.006Z,95024.13
2024-05-09T12:25:31.595Z,95016.91
2024-05-09T12:27:58.315Z,95012.75
2024-05-09T12:30:33.227Z,95008.16
2024-05-09T12:33:05.008Z,95013.84
2024-05-09T12:35:31.890Z,95007.63
2024-05-09T12:37:58.579Z,95010.34
2024-05-09T12:40:34.298Z,95016.16
2024-05-09T12:43:04.445Z,95008.09
2024-05-09T12:45:31.407Z,95008.06
2024-05-09T12:47:58.323Z,94996.50
2024-05-09T12:50:31.664Z,94992.06
2024-05-09T12:53:00.459Z,94991.63
2024-05-09T12:55:28.343Z,94991.13
2024-05-09T12:57:56.420Z,94990.22
2024-05-09T13:00:28.224Z,94990.91
2024-05-09T13:03:00.543Z,94994.97
2024-05-09T13:05:27.821Z,94988.81
2024-05-09T13:07:56.167Z,94981.53
2024-05-09T13:10:29.242Z,94980.34
2024-05-09T13:12:59.602Z,94975.34
2024-05-09T13:15:26.583Z,94967.81
2024-05-09T13:17:53.383Z,94979.44
2024-05-09T13:20:29.092Z,94972.78
2024-05-09T13:23:01.282Z,94981.78
2024-05-09T13:25:27.941Z,94982.53
2024-05-09T13:27:54.723Z,94960.69
2024-05-09T13:30:29.172Z,94955.31
2024-05-09T13:33:04.537Z,94946.38
2024-05-09T13:35:32.089Z,94950.38
2024-05-09T13:37:58.805Z,94957.28
2024-05-09T13:40:32.652Z,94952.38
2024-05-09T13:43:02.179Z,94939.94
2024-05-09T13:45:29.035Z,94939.88
2024-05-09T13:47:55.797Z,94943.59
2024-05-09T13:50:31.101Z,94947.59
2024-05-09T13:53:01.822Z,94935.44
2024-05-09T13:55:28.520Z,94940.81
2024-05-09T13:57:55.384Z,94946.91
2024-05-09T14:00:37.583Z,94941.00
2024-05-09T14:03:08.918Z,94944.97
2024-05-09T14:05:35.832Z,94944.94
2024-05-09T14:08:02.500Z,94940.72
2024-05-09T14:10:31.487Z,94922.53
2024-05-09T14:12:59.041Z,94925.94
2024-05-09T14:15:25.690Z,94927.47
2024-05-09T14:17:52.391Z,94927.78
2024-05-09T14:20:27.940Z,94922.06
2024-05-09T14:22:57.915Z,94923.19
2024-05-09T14:25:26.583Z,94919.88
2024-05-09T14:27:53.480Z,94918.03
2024-05-09T14:30:29.719Z,94922.03
2024-05-09T14:33:01.563Z,94919.09
2024-05-09T14:35:28.364Z,94921.63
2024-05-09T14:37:54.998Z,94915.59
2024-05-09T14:40:34.915Z,94921.19
2024-05-09T14:43:06.579Z,94918.66
2024-05-09T14:45:34.428Z,94915.44
2024-05-09T14:48:01.454Z,94916.47
2024-05-09T14:50:35.125Z,94911.00
2024-05-09T14:53:05.941Z,94914.44
2024-05-09T14:55:35.178Z,94916.28
2024-05-09T14:58:02.614Z,94901.16
2024-05-09T15:00:35.143Z,94912.00
2024-05-09T15:03:03.184Z,94901.41
2024-05-09T15:05:30.149Z,94911.31
2024-05-09T15:07:57.244Z,94899.00
2024-05-09T15:10:31.547Z,94903.66
2024-05-09T15:13:01.942Z,94907.59
2024-05-09T15:15:28.541Z,94901.63
2024-05-09T15:17:55.321Z,94892.34
2024-05-09T15:20:30.923Z,94909.88
2024-05-09T15:23:01.682Z,94904.13
2024-05-09T15:25:28.415Z,94898.91
2024-05-09T15:27:55.125Z,94892.72
2024-05-09T15:30:29.950Z,94894.88
2024-05-09T15:32:59.224Z,94892.16
2024-05-09T15:35:25.820Z,94893.56
2024-05-09T15:37:52.398Z,94884.41
2024-05-09T15:40:26.784Z,94893.03
2024-05-09T15:43:02.557Z,94893.03
2024-05-09T15:45:29.592Z,94883.53
2024-05-09T15:47:57.018Z,94894.72
2024-05-09T15:50:35.131Z,94891.22
2024-05-09T15:53:05.815Z,94900.34
2024-05-09T15:55:33.758Z,94894.63
2024-05-09T15:58:01.164Z,94899.88
2024-05-09T16:00:36.534Z,94890.09
2024-05-09T16:03:06.934Z,94889.00
2024-05-09T16:05:34.025Z,94895.13
2024-05-09T16:08:00.775Z,94884.53
2024-05-09T16:10:32.536Z,94885.97
2024-05-09T16:13:04.182Z,94890.53
2024-05-09T16:15:31.184Z,94887.28
2024-05-09T16:17:58.031Z,94856.09
2024-05-09T16:20:34.405Z,94874.78
2024-05-09T16:23:06.389Z,94854.06
2024-05-09T16:25:33.100Z,94845.44
2024-05-09T16:27:59.883Z,94875.53
2024-05-09T16:30:33.849Z,94879.59
2024-05-09T16:33:03.732Z,94881.97
2024-05-09T16:35:31.180Z,94841.13
2024-05-09T16:37:57.838Z,94871.34
2024-05-09T16:40:34.335Z,94880.03
2024-05-09T16:43:05.606Z,94862.22
2024-05-09T16:45:33.194Z,94876.00
2024-05-09T16:48:00.410Z,94861.47
2024-05-09T16:50:32.423Z,94816.09
2024-05-09T16:53:01.234Z,94849.94
2024-05-09T16:55:28.026Z,94866.28
2024-05-09T16:57:55.008Z,94852.69
2024-05-09T17:00:31.694Z,94870.09
2024-05-09T17:03:06.982Z,94862.22
2024-05-09T17:05:34.288Z,94859.88
2024-05-09T17:08:01.401Z,94868.00
2024-05-09T17:10:32.911Z,94878.56
2024-05-09T17:13:02.318Z,94863.06
2024-05-09T17:15:29.388Z,94845.47
2024-05-09T17:17:56.072Z,94881.22
2024-05-09T17:20:29.775Z,94862.25
2024-05-09T17:23:01.835Z,94856.94
2024-05-09T17:25:28.543Z,94876.47
2024-05-09T17:27:55.276Z,94842.09
2024-05-09T17:30:29.050Z,94854.09
2024-05-09T17:33:01.823Z,94874.69
2024-05-09T17:35:28.696Z,94872.34
2024-05-09T17:37:55.355Z,94854.25
2024-05-09T17:40:30.766Z,94859.97
2024-05-09T17:43:01.424Z,94883.50
2024-05-09T17:45:28.398Z,94858.63
2024-05-09T17:47:55.320Z,94854.28
2024-05-09T17:50:27.989Z,94869.22
2024-05-09T17:53:01.045Z,94892.28
2024-05-09T17:55:28.035Z,94872.53
2024-05-09T17:57:54.699Z,94857.41
2024-05-09T18:00:29.533Z,94871.44
2024-05-09T18:03:04.529Z,94882.59
2024-05-09T18:05:31.585Z,94882.88
2024-05-09T18:07:58.590Z,94889.13
2024-05-09T18:10:32.847Z,94878.88
2024-05-09T18:13:05.144Z,94891.59
2024-05-09T18:15:31.942Z,94892.41
2024-05-09T18:17:58.716Z,94904.34
2024-05-09T18:20:36.098Z,94880.56
2024-05-09T18:23:08.317Z,94909.25
2024-05-09T18:25:35.101Z,94863.53
2024-05-09T18:28:02.698Z,94894.91
2024-05-09T18:30:34.709Z,94874.63
2024-05-09T18:33:04.129Z,94897.41
2024-05-09T18:35:31.298Z,94826.22
2024-05-09T18:37:57.890Z,94867.66
2024-05-09T18:40:32.646Z,94884.03
2024-05-09T18:43:02.720Z,94899.78
2024-05-09T18:45:29.543Z,94878.38
2024-05-09T18:47:56.346Z,94887.41
2024-05-09T18:50:31.972Z,94901.50
2024-05-09T18:53:02.863Z,94903.66
2024-05-09T18:55:29.606Z,94889.59
2024-05-09T18:57:56.352Z,94874.72
2024-05-09T19:00:31.586Z,94874.16
2024-05-09T19:03:05.411Z,94900.78
2024-05-09T19:05:33.244Z,94880.72
2024-05-09T19:07:59.969Z,94854.47
2024-05-09T19:10:33.628Z,94889.75
2024-05-09T19:13:04.320Z,94887.84
2024-05-09T19:15:33.704Z,94892.69
2024-05-09T19:18:00.630Z,94890.56
2024-05-09T19:20:33.160Z,94900.63
2024-05-09T19:23:01.423Z,94912.03
2024-05-09T19:25:28.026Z,94901.72
2024-05-09T19:27:54.702Z,94927.75
2024-05-09T19:30:29.911Z,94932.41
2024-05-09T19:33:04.682Z,94917.47
2024-05-09T19:35:31.483Z,94894.13
2024-05-09T19:37:58.367Z,94907.94
2024-05-09T19:40:31.085Z,94919.31
2024-05-09T19:42:59.994Z,94920.66
2024-05-09T19:45:26.682Z,94940.69
2024-05-09T19:47:53.398Z,94932.59
2024-05-09T19:50:27.022Z,94950.22
2024-05-09T19:53:02.792Z,94939.13
2024-05-09T19:55:29.409Z,94942.94
2024-05-09T19:57:56.076Z,94948.63
2024-05-09T20:00:29.353Z,94934.78
2024-05-09T20:03:02.056Z,94946.97
2024-05-09T20:05:31.087Z,94921.78
2024-05-09T20:07:58.025Z,94923.41
2024-05-09T20:10:30.036Z,94948.63
2024-05-09T20:12:59.751Z,94925.53
2024-05-09T20:15:26.716Z,94939.13
2024-05-09T20:17:53.495Z,94929.06
2024-05-09T20:20:28.460Z,94925.53
2024-05-09T20:23:02.958Z,94939.09
2024-05-09T20:25:29.620Z,94907.06
2024-05-09T20:27:56.349Z,94949.13
2024-05-09T20:30:30.467Z,94928.78
2024-05-09T20:32:59.457Z,94933.63
2024-05-09T20:35:26.697Z,94930.94
2024-05-09T20:37:53.598Z,94928.44
2024-05-09T20:40:28.358Z,94948.78
2024-05-09T20:42:59.146Z,94931.88
2024-05-09T20:45:25.959Z,94917.44
2024-05-09T20:47:52.733Z,94940.44
2024-05-09T20:50:28.189Z,94902.41
2024-05-09T20:53:02.730Z,94944.22
2024-05-09T20:55:29.925Z,94929.53
2024-05-09T20:57:56.988Z,94897.72
2024-05-09T21:00:30.351Z,94912.44
2024-05-09T21:03:05.797Z,94915.94
2024-05-09T21:05:33.077Z,94914.78
2024-05-09T21:07:59.974Z,94912.63
2024-05-09T21:10:27.415Z,94921.28
2024-05-09T21:12:57.906Z,94867.72
2024-05-09T21:15:24.667Z,94870.69
2024-05-09T21:17:51.328Z,94920.09
2024-05-09T21:20:23.913Z,94881.22
2024-05-09T21:22:55.617Z,94900.53
2024-05-09T21:25:22.506Z,94864.06
2024-05-09T21:27:49.263Z,94900.44
2024-05-09T21:30:22.705Z,94936.22
2024-05-09T21:32:58.393Z,94924.00
2024-05-09T21:35:25.045Z,94901.94
2024-05-09T21:37:51.658Z,94928.03
2024-05-09T21:40:27.024Z,94899.72
2024-05-09T21:43:00.371Z,94905.06
2024-05-09T21:45:27.241Z,94853.44
2024-05-09T21:47:54.085Z,94939.78
2024-05-09T21:50:27.598Z,94907.72
2024-05-09T21:52:58.844Z,94938.09
2024-05-09T21:55:25.482Z,94903.25
2024-05-09T21:57:52.163Z,94910.25
2024-05-09T22:00:28.648Z,94927.06
2024-05-09T22:03:02.057Z,94953.56
2024-05-09T22:05:28.962Z,94908.16
2024-05-09T22:07:55.739Z,94886.91
2024-05-09T22:10:26.561Z,94918.09
2024-05-09T22:12:59.254Z,94916.38
2024-05-09T22:15:26.022Z,94891.41
2024-05-09T22:17:52.799Z,94933.53
2024-05-09T22:20:28.690Z,94957.13
2024-05-09T22:23:02.299Z,94912.06
2024-05-09T22:25:30.467Z,94910.72
2024-05-09T22:27:57.768Z,94890.13
2024-05-09T22:30:33.142Z,94937.66
2024-05-09T22:33:03.691Z,94900.28
2024-05-09T22:35:30.575Z,94906.19
2024-05-09T22:37:57.216Z,94932.53
2024-05-09T22:40:29.436Z,94880.34
2024-05-09T22:43:05.578Z,94939.00
2024-05-09T22:45:32.303Z,94881.34
2024-05-09T22:47:59.387Z,94890.09
2024-05-09T22:50:27.301Z,94868.22
2024-05-09T22:52:59.165Z,94913.59
2024-05-09T22:55:25.857Z,94877.63
2024-05-09T22:57:52.595Z,94873.59
2024-05-09T23:00:26.307Z,94873.00
2024-05-09T23:02:57.911Z,94893.84
2024-05-09T23:05:24.715Z,94899.03
2024-05-09T23:07:51.418Z,94884.28
2024-05-09T23:10:25.148Z,94911.50
2024-05-09T23:12:58.756Z,94901.22
2024-05-09T23:15:25.623Z,94904.97
2024-05-09T23:17:52.480Z,94920.91
2024-05-09T23:20:29.790Z,94927.78
2024-05-09T23:23:03.338Z,94872.22
2024-05-09T23:25:30.042Z,94879.47
2024-05-09T23:27:56.921Z,94903.28
2024-05-09T23:30:33.293Z,94896.00
2024-05-09T23:33:05.005Z,94882.63
2024-05-09T23:35:31.821Z,94897.78
2024-05-09T23:37:58.537Z,94907.09
2024-05-09T23:40:36.721Z,94873.66
2024-05-09T23:43:06.710Z,94868.03
2024-05-09T23:45:33.758Z,94926.03
2024-05-09T23:48:01.077Z,94875.69
2024-05-09T23:50:34.405Z,94859.56
2024-05-09T23:53:04.834Z,94845.38
2024-05-09T23:55:32.186Z,94847.75
2024-05-09T23:57:59.466Z,94847.56
